sensor_id;sensor_type;location;lat;lon;timestamp;pressure;altitude;pressure_sealevel;temperature;humidity
6345;BME280;3205;42.666;23.264;2023-03-14T00:01:43;94594.22;;;1.11;100.00
6345;BME280;3205;42.666;23.264;2023-03-14T00:04:09;94591.91;;;1.10;100.00
6345;BME280;3205;42.666;23.264;2023-03-14T00:06:35;94599.75;;;1.05;100.00
6345;BME280;3205;42.666;23.264;2023-03-14T00:09:01;94597.38;;;1.08;100.00
6345;BME280;3205;42.666;23.264;2023-03-14T00:11:27;94587.22;;;1.07;100.00
6345;BME280;3205;42.666;23.264;2023-03-14T00:13:55;94582.00;;;1.07;100.00
6345;BME280;3205;42.666;23.264;2023-03-14T00:16:21;94580.97;;;1.08;100.00
6345;BME280;3205;42.666;23.264;2023-03-14T00:18:48;94578.38;;;1.08;100.00
6345;BME280;3205;42.666;23.264;2023-03-14T00:21:14;94570.59;;;1.03;100.00
6345;BME280;3205;42.666;23.264;2023-03-14T00:23:41;94574.25;;;1.02;100.00
6345;BME280;3205;42.666;23.264;2023-03-14T00:26:09;94565.91;;;1.05;100.00
6345;BME280;3205;42.666;23.264;2023-03-14T00:28:36;94558.91;;;0.95;100.00
6345;BME280;3205;42.666;23.264;2023-03-14T00:31:02;94558.63;;;1.02;100.00
6345;BME280;3205;42.666;23.264;2023-03-14T00:33:28;94553.19;;;0.98;100.00
6345;BME280;3205;42.666;23.264;2023-03-14T00:35:57;94550.88;;;0.92;100.00
6345;BME280;3205;42.666;23.264;2023-03-14T00:38:24;94548.25;;;0.92;100.00
6345;BME280;3205;42.666;23.264;2023-03-14T00:40:51;94546.22;;;0.89;100.00
6345;BME280;3205;42.666;23.264;2023-03-14T00:43:17;94546.19;;;0.94;100.00
6345;BME280;3205;42.666;23.264;2023-03-14T00:45:44;94541.25;;;0.92;100.00
6345;BME280;3205;42.666;23.264;2023-03-14T00:48:10;94549.56;;;0.94;100.00
6345;BME280;3205;42.666;23.264;2023-03-14T00:50:36;94544.13;;;0.86;100.00
6345;BME280;3205;42.666;23.264;2023-03-14T00:53:03;94540.50;;;0.87;100.00
6345;BME280;3205;42.666;23.264;2023-03-14T00:55:29;94545.41;;;0.88;100.00
6345;BME280;3205;42.666;23.264;2023-03-14T00:57:55;94540.78;;;0.85;100.00
6345;BME280;3205;42.666;23.264;2023-03-14T01:00:22;94535.56;;;0.85;100.00
6345;BME280;3205;42.666;23.264;2023-03-14T01:02:49;94535.84;;;0.79;100.00
6345;BME280;3205;42.666;23.264;2023-03-14T01:05:15;94524.16;;;0.76;100.00
6345;BME280;3205;42.666;23.264;2023-03-14T01:07:41;94529.13;;;0.78;100.00
6345;BME280;3205;42.666;23.264;2023-03-14T01:10:09;94539.53;;;0.73;100.00
6345;BME280;3205;42.666;23.264;2023-03-14T01:12:35;94530.75;;;0.64;100.00
6345;BME280;3205;42.666;23.264;2023-03-14T01:15:02;94527.34;;;0.64;100.00
6345;BME280;3205;42.666;23.264;2023-03-14T01:17:28;94517.22;;;0.62;100.00
6345;BME280;3205;42.666;23.264;2023-03-14T01:19:54;94514.09;;;0.60;100.00
6345;BME280;3205;42.666;23.264;2023-03-14T01:22:20;94512.81;;;0.58;100.00
6345;BME280;3205;42.666;23.264;2023-03-14T01:24:46;94504.19;;;0.67;100.00
6345;BME280;3205;42.666;23.264;2023-03-14T01:27:13;94507.06;;;0.66;100.00
6345;BME280;3205;42.666;23.264;2023-03-14T01:29:39;94506.03;;;0.67;100.00
6345;BME280;3205;42.666;23.264;2023-03-14T01:32:05;94499.28;;;0.61;100.00
6345;BME280;3205;42.666;23.264;2023-03-14T01:34:31;94490.19;;;0.63;100.00
6345;BME280;3205;42.666;23.264;2023-03-14T01:36:57;94493.84;;;0.57;100.00
6345;BME280;3205;42.666;23.264;2023-03-14T01:39:24;94493.53;;;0.64;100.00
6345;BME280;3205;42.666;23.264;2023-03-14T01:41:50;94489.16;;;0.54;100.00
6345;BME280;3205;42.666;23.264;2023-03-14T01:44:17;94491.53;;;0.51;100.00
6345;BME280;3205;42.666;23.264;2023-03-14T01:46:43;94497.00;;;0.49;100.00
6345;BME280;3205;42.666;23.264;2023-03-14T01:49:18;94485.09;;;0.43;100.00
6345;BME280;3205;42.666;23.264;2023-03-14T01:51:50;94483.75;;;0.41;100.00
6345;BME280;3205;42.666;23.264;2023-03-14T01:54:21;94480.91;;;0.42;100.00
6345;BME280;3205;42.666;23.264;2023-03-14T01:56:53;94482.47;;;0.43;100.00
6345;BME280;3205;42.666;23.264;2023-03-14T01:59:22;94479.56;;;0.50;100.00
6345;BME280;3205;42.666;23.264;2023-03-14T02:01:49;94480.13;;;0.47;100.00
6345;BME280;3205;42.666;23.264;2023-03-14T02:04:17;94473.84;;;0.48;100.00
6345;BME280;3205;42.666;23.264;2023-03-14T02:06:50;94479.56;;;0.50;100.00
6345;BME280;3205;42.666;23.264;2023-03-14T02:09:17;94474.69;;;0.43;100.00
6345;BME280;3205;42.666;23.264;2023-03-14T02:11:45;94466.88;;;0.43;100.00
6345;BME280;3205;42.666;23.264;2023-03-14T02:14:21;94466.09;;;0.43;100.00
6345;BME280;3205;42.666;23.264;2023-03-14T02:16:50;94467.38;;;0.45;100.00
6345;BME280;3205;42.666;23.264;2023-03-14T02:19:20;94467.13;;;0.42;100.00
6345;BME280;3205;42.666;23.264;2023-03-14T02:21:57;94467.91;;;0.42;100.00
6345;BME280;3205;42.666;23.264;2023-03-14T02:24:34;94467.44;;;0.35;100.00
6345;BME280;3205;42.666;23.264;2023-03-14T02:27:09;94466.91;;;0.33;100.00
6345;BME280;3205;42.666;23.264;2023-03-14T02:29:39;94462.75;;;0.32;100.00
6345;BME280;3205;42.666;23.264;2023-03-14T02:32:06;94456.78;;;0.32;100.00
6345;BME280;3205;42.666;23.264;2023-03-14T02:34:34;94470.56;;;0.32;100.00
6345;BME280;3205;42.666;23.264;2023-03-14T02:37:00;94474.19;;;0.31;100.00
6345;BME280;3205;42.666;23.264;2023-03-14T02:39:32;94472.94;;;0.24;100.00
6345;BME280;3205;42.666;23.264;2023-03-14T02:41:59;94475.00;;;0.22;100.00
6345;BME280;3205;42.666;23.264;2023-03-14T02:44:25;94482.81;;;0.27;100.00
6345;BME280;3205;42.666;23.264;2023-03-14T02:46:51;94475.56;;;0.19;100.00
6345;BME280;3205;42.666;23.264;2023-03-14T02:49:18;94468.81;;;0.18;100.00
6345;BME280;3205;42.666;23.264;2023-03-14T02:51:46;94470.38;;;0.14;100.00
6345;BME280;3205;42.666;23.264;2023-03-14T02:54:14;94470.38;;;0.14;100.00
6345;BME280;3205;42.666;23.264;2023-03-14T02:56:40;94467.00;;;0.13;100.00
6345;BME280;3205;42.666;23.264;2023-03-14T02:59:06;94466.25;;;0.08;100.00
6345;BME280;3205;42.666;23.264;2023-03-14T03:01:34;94476.88;;;0.11;100.00
6345;BME280;3205;42.666;23.264;2023-03-14T03:04:00;94468.06;;;0.07;100.00
6345;BME280;3205;42.666;23.264;2023-03-14T03:06:26;94472.22;;;0.08;100.00
6345;BME280;3205;42.666;23.264;2023-03-14T03:08:52;94471.72;;;0.06;100.00
6345;BME280;3205;42.666;23.264;2023-03-14T03:11:18;94469.13;;;0.01;100.00
6345;BME280;3205;42.666;23.264;2023-03-14T03:13:44;94478.47;;;0.07;100.00
6345;BME280;3205;42.666;23.264;2023-03-14T03:16:11;94469.09;;;0.11;100.00
6345;BME280;3205;42.666;23.264;2023-03-14T03:18:39;94468.59;;;0.04;100.00
6345;BME280;3205;42.666;23.264;2023-03-14T03:21:06;94462.34;;;0.05;100.00
6345;BME280;3205;42.666;23.264;2023-03-14T03:23:34;94464.22;;;0.00;100.00
6345;BME280;3205;42.666;23.264;2023-03-14T03:26:00;94465.22;;;0.04;100.00
6345;BME280;3205;42.666;23.264;2023-03-14T03:28:27;94466.50;;;0.06;100.00
6345;BME280;3205;42.666;23.264;2023-03-14T03:30:53;94460.31;;;0.02;100.00
6345;BME280;3205;42.666;23.264;2023-03-14T03:33:19;94468.34;;;0.06;100.00
6345;BME280;3205;42.666;23.264;2023-03-14T03:35:49;94460.28;;;0.07;100.00
6345;BME280;3205;42.666;23.264;2023-03-14T03:38:16;94462.63;;;0.04;100.00
6345;BME280;3205;42.666;23.264;2023-03-14T03:40:42;94466.81;;;0.00;100.00
6345;BME280;3205;42.666;23.264;2023-03-14T03:43:08;94463.41;;;-0.01;100.00
6345;BME280;3205;42.666;23.264;2023-03-14T03:45:34;94462.13;;;-0.03;100.00
6345;BME280;3205;42.666;23.264;2023-03-14T03:48:01;94472.28;;;-0.11;100.00
6345;BME280;3205;42.666;23.264;2023-03-14T03:50:27;94474.88;;;-0.16;100.00
6345;BME280;3205;42.666;23.264;2023-03-14T03:52:54;94485.28;;;-0.16;100.00
6345;BME280;3205;42.666;23.264;2023-03-14T03:55:20;94483.50;;;-0.21;100.00
6345;BME280;3205;42.666;23.264;2023-03-14T03:57:46;94475.16;;;-0.18;100.00
6345;BME280;3205;42.666;23.264;2023-03-14T04:00:12;94473.59;;;-0.14;100.00
6345;BME280;3205;42.666;23.264;2023-03-14T04:02:39;94474.63;;;-0.10;100.00
6345;BME280;3205;42.666;23.264;2023-03-14T04:05:05;94467.06;;;-0.06;100.00
6345;BME280;3205;42.666;23.264;2023-03-14T04:07:31;94473.06;;;-0.11;100.00
6345;BME280;3205;42.666;23.264;2023-03-14T04:09:58;94472.78;;;-0.09;100.00
6345;BME280;3205;42.666;23.264;2023-03-14T04:12:24;94469.19;;;-0.13;100.00
6345;BME280;3205;42.666;23.264;2023-03-14T04:14:50;94473.09;;;-0.16;100.00
6345;BME280;3205;42.666;23.264;2023-03-14T04:17:16;94465.81;;;-0.24;100.00
6345;BME280;3205;42.666;23.264;2023-03-14T04:19:42;94457.50;;;-0.26;100.00
6345;BME280;3205;42.666;23.264;2023-03-14T04:22:08;94453.63;;;-0.18;100.00
6345;BME280;3205;42.666;23.264;2023-03-14T04:24:34;94452.34;;;-0.21;100.00
6345;BME280;3205;42.666;23.264;2023-03-14T04:27:01;94449.72;;;-0.16;100.00
6345;BME280;3205;42.666;23.264;2023-03-14T04:29:27;94437.50;;;-0.15;100.00
6345;BME280;3205;42.666;23.264;2023-03-14T04:31:53;94443.47;;;-0.20;100.00
6345;BME280;3205;42.666;23.264;2023-03-14T04:34:19;94433.34;;;-0.21;100.00
6345;BME280;3205;42.666;23.264;2023-03-14T04:36:45;94438.31;;;-0.25;100.00
6345;BME280;3205;42.666;23.264;2023-03-14T04:39:12;94434.63;;;-0.19;100.00
6345;BME280;3205;42.666;23.264;2023-03-14T04:41:41;94430.72;;;-0.16;100.00
6345;BME280;3205;42.666;23.264;2023-03-14T04:44:08;94432.78;;;-0.08;100.00
6345;BME280;3205;42.666;23.264;2023-03-14T04:46:34;94421.34;;;-0.07;100.00
6345;BME280;3205;42.666;23.264;2023-03-14T04:49:00;94428.13;;;-0.06;100.00
6345;BME280;3205;42.666;23.264;2023-03-14T04:51:26;94415.06;;;0.03;100.00
6345;BME280;3205;42.666;23.264;2023-03-14T04:53:53;94409.88;;;0.08;100.00
6345;BME280;3205;42.666;23.264;2023-03-14T04:56:19;94414.50;;;0.11;100.00
6345;BME280;3205;42.666;23.264;2023-03-14T04:58:45;94416.09;;;0.07;100.00
6345;BME280;3205;42.666;23.264;2023-03-14T05:01:12;94420.75;;;0.10;100.00
6345;BME280;3205;42.666;23.264;2023-03-14T05:03:38;94419.97;;;0.15;100.00
6345;BME280;3205;42.666;23.264;2023-03-14T05:06:05;94418.88;;;0.26;100.00
6345;BME280;3205;42.666;23.264;2023-03-14T05:08:31;94418.56;;;0.32;100.00
6345;BME280;3205;42.666;23.264;2023-03-14T05:10:58;94416.41;;;0.44;100.00
6345;BME280;3205;42.666;23.264;2023-03-14T05:13:24;94413.47;;;0.61;100.00
6345;BME280;3205;42.666;23.264;2023-03-14T05:15:50;94424.00;;;0.79;100.00
6345;BME280;3205;42.666;23.264;2023-03-14T05:18:18;94414.19;;;1.04;100.00
6345;BME280;3205;42.666;23.264;2023-03-14T05:20:44;94414.78;;;1.25;100.00
6345;BME280;3205;42.666;23.264;2023-03-14T05:23:10;94417.09;;;1.54;100.00
6345;BME280;3205;42.666;23.264;2023-03-14T05:25:37;94414.41;;;1.88;100.00
6345;BME280;3205;42.666;23.264;2023-03-14T05:28:03;94416.78;;;2.68;100.00
6345;BME280;3205;42.666;23.264;2023-03-14T05:30:29;94421.81;;;5.24;100.00
6345;BME280;3205;42.666;23.264;2023-03-14T05:32:56;94424.78;;;8.45;100.00
6345;BME280;3205;42.666;23.264;2023-03-14T05:35:23;94434.22;;;11.55;100.00
6345;BME280;3205;42.666;23.264;2023-03-14T05:37:49;94433.91;;;13.98;62.89
6345;BME280;3205;42.666;23.264;2023-03-14T05:40:15;94436.91;;;15.60;49.06
6345;BME280;3205;42.666;23.264;2023-03-14T05:42:41;94444.69;;;16.38;44.35
6345;BME280;3205;42.666;23.264;2023-03-14T05:45:08;94441.72;;;17.43;42.80
6345;BME280;3205;42.666;23.264;2023-03-14T05:47:34;94443.97;;;18.15;41.21
6345;BME280;3205;42.666;23.264;2023-03-14T05:50:00;94436.84;;;18.96;38.76
6345;BME280;3205;42.666;23.264;2023-03-14T05:52:27;94439.91;;;19.43;37.20
6345;BME280;3205;42.666;23.264;2023-03-14T05:54:53;94446.38;;;19.63;35.31
6345;BME280;3205;42.666;23.264;2023-03-14T05:57:20;94441.44;;;19.54;35.09
6345;BME280;3205;42.666;23.264;2023-03-14T05:59:46;94450.16;;;18.26;36.25
6345;BME280;3205;42.666;23.264;2023-03-14T06:02:12;94440.94;;;18.17;35.57
6345;BME280;3205;42.666;23.264;2023-03-14T06:04:38;94438.75;;;17.55;36.62
6345;BME280;3205;42.666;23.264;2023-03-14T06:07:04;94444.47;;;17.00;37.12
6345;BME280;3205;42.666;23.264;2023-03-14T06:09:31;94440.59;;;16.90;37.96
6345;BME280;3205;42.666;23.264;2023-03-14T06:11:57;94434.19;;;17.02;38.05
6345;BME280;3205;42.666;23.264;2023-03-14T06:14:23;94430.34;;;16.52;37.97
6345;BME280;3205;42.666;23.264;2023-03-14T06:16:49;94437.56;;;15.79;38.55
6345;BME280;3205;42.666;23.264;2023-03-14T06:19:16;94436.50;;;14.58;40.13
6345;BME280;3205;42.666;23.264;2023-03-14T06:21:42;94437.19;;;14.29;41.48
6345;BME280;3205;42.666;23.264;2023-03-14T06:24:08;94444.69;;;14.05;41.69
6345;BME280;3205;42.666;23.264;2023-03-14T06:26:35;94448.28;;;14.80;40.97
6345;BME280;3205;42.666;23.264;2023-03-14T06:29:01;94449.78;;;15.03;40.11
6345;BME280;3205;42.666;23.264;2023-03-14T06:31:30;94447.75;;;15.45;39.49
6345;BME280;3205;42.666;23.264;2023-03-14T06:33:56;94453.63;;;15.57;38.57
6345;BME280;3205;42.666;23.264;2023-03-14T06:36:22;94446.69;;;15.49;38.99
6345;BME280;3205;42.666;23.264;2023-03-14T06:38:48;94442.84;;;16.88;37.33
6345;BME280;3205;42.666;23.264;2023-03-14T06:41:14;94442.53;;;17.50;35.91
6345;BME280;3205;42.666;23.264;2023-03-14T06:43:41;94442.97;;;17.02;35.94
6345;BME280;3205;42.666;23.264;2023-03-14T06:46:08;94433.09;;;17.74;35.71
6345;BME280;3205;42.666;23.264;2023-03-14T06:48:34;94426.03;;;18.16;35.28
6345;BME280;3205;42.666;23.264;2023-03-14T06:51:00;94424.44;;;18.01;34.68
6345;BME280;3205;42.666;23.264;2023-03-14T06:53:26;94419.78;;;17.84;34.67
6345;BME280;3205;42.666;23.264;2023-03-14T06:55:52;94416.56;;;18.60;34.45
6345;BME280;3205;42.666;23.264;2023-03-14T06:58:18;94416.53;;;19.43;33.73
6345;BME280;3205;42.666;23.264;2023-03-14T07:00:45;94414.09;;;19.91;33.08
6345;BME280;3205;42.666;23.264;2023-03-14T07:03:13;94415.47;;;20.30;31.83
6345;BME280;3205;42.666;23.264;2023-03-14T07:05:39;94398.09;;;21.46;31.88
6345;BME280;3205;42.666;23.264;2023-03-14T07:08:06;94395.78;;;22.11;30.36
6345;BME280;3205;42.666;23.264;2023-03-14T07:10:33;94402.66;;;22.98;29.66
6345;BME280;3205;42.666;23.264;2023-03-14T07:12:59;94411.00;;;22.25;29.68
6345;BME280;3205;42.666;23.264;2023-03-14T07:15:25;94407.22;;;21.56;30.38
6345;BME280;3205;42.666;23.264;2023-03-14T07:17:52;94400.00;;;21.82;30.31
6345;BME280;3205;42.666;23.264;2023-03-14T07:20:18;94406.78;;;22.24;29.65
6345;BME280;3205;42.666;23.264;2023-03-14T07:22:47;94405.06;;;22.66;29.51
6345;BME280;3205;42.666;23.264;2023-03-14T07:25:13;94409.75;;;22.36;28.67
6345;BME280;3205;42.666;23.264;2023-03-14T07:27:40;94406.44;;;23.27;28.10
6345;BME280;3205;42.666;23.264;2023-03-14T07:30:06;94394.66;;;23.83;27.42
6345;BME280;3205;42.666;23.264;2023-03-14T07:32:33;94384.81;;;23.73;28.01
6345;BME280;3205;42.666;23.264;2023-03-14T07:34:59;94392.38;;;23.58;27.92
6345;BME280;3205;42.666;23.264;2023-03-14T07:37:25;94389.81;;;24.48;27.34
6345;BME280;3205;42.666;23.264;2023-03-14T07:39:52;94382.09;;;26.02;26.42
6345;BME280;3205;42.666;23.264;2023-03-14T07:42:18;94389.28;;;27.11;25.29
6345;BME280;3205;42.666;23.264;2023-03-14T07:44:44;94383.72;;;25.43;25.19
6345;BME280;3205;42.666;23.264;2023-03-14T07:47:10;94379.94;;;24.22;26.19
6345;BME280;3205;42.666;23.264;2023-03-14T07:49:36;94388.75;;;24.62;25.68
6345;BME280;3205;42.666;23.264;2023-03-14T07:52:03;94384.94;;;24.04;26.14
6345;BME280;3205;42.666;23.264;2023-03-14T07:54:29;94388.69;;;24.81;26.11
6345;BME280;3205;42.666;23.264;2023-03-14T07:56:55;94374.44;;;25.12;25.40
6345;BME280;3205;42.666;23.264;2023-03-14T07:59:24;94368.09;;;26.94;24.99
6345;BME280;3205;42.666;23.264;2023-03-14T08:01:50;94374.56;;;26.10;24.86
6345;BME280;3205;42.666;23.264;2023-03-14T08:04:17;94369.31;;;24.31;25.40
6345;BME280;3205;42.666;23.264;2023-03-14T08:06:43;94368.69;;;23.89;25.81
6345;BME280;3205;42.666;23.264;2023-03-14T08:09:10;94364.00;;;24.79;25.99
6345;BME280;3205;42.666;23.264;2023-03-14T08:11:36;94371.13;;;25.05;25.99
6345;BME280;3205;42.666;23.264;2023-03-14T08:14:02;94369.75;;;25.29;25.46
6345;BME280;3205;42.666;23.264;2023-03-14T08:16:29;94369.25;;;24.70;25.01
6345;BME280;3205;42.666;23.264;2023-03-14T08:18:55;94364.50;;;25.82;24.91
6345;BME280;3205;42.666;23.264;2023-03-14T08:21:22;94362.00;;;24.99;25.60
6345;BME280;3205;42.666;23.264;2023-03-14T08:23:48;94357.84;;;24.78;25.66
6345;BME280;3205;42.666;23.264;2023-03-14T08:26:14;94368.56;;;24.31;25.97
6345;BME280;3205;42.666;23.264;2023-03-14T08:28:42;94358.56;;;24.12;26.37
6345;BME280;3205;42.666;23.264;2023-03-14T08:31:08;94369.16;;;23.22;27.05
6345;BME280;3205;42.666;23.264;2023-03-14T08:33:34;94360.72;;;22.94;27.09
6345;BME280;3205;42.666;23.264;2023-03-14T08:36:01;94353.13;;;22.40;27.70
6345;BME280;3205;42.666;23.264;2023-03-14T08:38:27;94352.59;;;23.20;27.35
6345;BME280;3205;42.666;23.264;2023-03-14T08:40:57;94344.44;;;23.01;27.47
6345;BME280;3205;42.666;23.264;2023-03-14T08:43:24;94338.13;;;23.11;27.53
6345;BME280;3205;42.666;23.264;2023-03-14T08:45:50;94344.38;;;23.27;27.20
6345;BME280;3205;42.666;23.264;2023-03-14T08:48:16;94336.59;;;24.10;26.83
6345;BME280;3205;42.666;23.264;2023-03-14T08:50:42;94332.75;;;24.62;26.07
6345;BME280;3205;42.666;23.264;2023-03-14T08:53:09;94327.91;;;25.17;25.94
6345;BME280;3205;42.666;23.264;2023-03-14T08:55:35;94324.34;;;26.05;25.11
6345;BME280;3205;42.666;23.264;2023-03-14T08:58:01;94317.88;;;25.46;24.79
6345;BME280;3205;42.666;23.264;2023-03-14T09:00:28;94312.69;;;26.45;24.72
6345;BME280;3205;42.666;23.264;2023-03-14T09:02:56;94297.59;;;25.66;25.08
6345;BME280;3205;42.666;23.264;2023-03-14T09:05:23;94304.19;;;24.77;25.86
6345;BME280;3205;42.666;23.264;2023-03-14T09:07:49;94298.38;;;21.60;27.35
6345;BME280;3205;42.666;23.264;2023-03-14T09:10:15;94290.41;;;22.13;27.71
6345;BME280;3205;42.666;23.264;2023-03-14T09:12:41;94277.06;;;22.55;27.38
6345;BME280;3205;42.666;23.264;2023-03-14T09:15:08;94280.00;;;23.29;26.43
6345;BME280;3205;42.666;23.264;2023-03-14T09:17:35;94281.09;;;23.12;26.13
6345;BME280;3205;42.666;23.264;2023-03-14T09:20:02;94280.28;;;20.50;27.04
6345;BME280;3205;42.666;23.264;2023-03-14T09:22:32;94276.03;;;19.27;29.33
6345;BME280;3205;42.666;23.264;2023-03-14T09:24:58;94272.81;;;19.63;28.74
6345;BME280;3205;42.666;23.264;2023-03-14T09:27:24;94268.44;;;19.05;29.67
6345;BME280;3205;42.666;23.264;2023-03-14T09:29:50;94253.94;;;19.81;29.31
6345;BME280;3205;42.666;23.264;2023-03-14T09:32:17;94248.88;;;20.47;29.22
6345;BME280;3205;42.666;23.264;2023-03-14T09:34:44;94242.44;;;21.78;28.30
6345;BME280;3205;42.666;23.264;2023-03-14T09:37:10;94245.38;;;20.07;28.95
6345;BME280;3205;42.666;23.264;2023-03-14T09:39:36;94238.47;;;20.09;29.11
6345;BME280;3205;42.666;23.264;2023-03-14T09:42:05;94234.25;;;20.08;29.47
6345;BME280;3205;42.666;23.264;2023-03-14T09:44:35;94223.59;;;21.78;28.15
6345;BME280;3205;42.666;23.264;2023-03-14T09:47:05;94233.53;;;20.88;28.30
6345;BME280;3205;42.666;23.264;2023-03-14T09:49:33;94224.50;;;20.68;28.77
6345;BME280;3205;42.666;23.264;2023-03-14T09:52:04;94213.75;;;21.05;28.86
6345;BME280;3205;42.666;23.264;2023-03-14T09:54:34;94210.75;;;20.63;29.44
6345;BME280;3205;42.666;23.264;2023-03-14T09:57:02;94195.63;;;20.39;29.05
6345;BME280;3205;42.666;23.264;2023-03-14T09:59:29;94204.44;;;19.92;29.92
6345;BME280;3205;42.666;23.264;2023-03-14T10:01:56;94190.47;;;20.14;29.97
6345;BME280;3205;42.666;23.264;2023-03-14T10:04:24;94199.38;;;18.30;30.52
6345;BME280;3205;42.666;23.264;2023-03-14T10:06:51;94190.59;;;17.88;31.72
6345;BME280;3205;42.666;23.264;2023-03-14T10:09:20;94187.91;;;17.91;32.35
6345;BME280;3205;42.666;23.264;2023-03-14T10:11:52;94185.88;;;17.19;32.12
6345;BME280;3205;42.666;23.264;2023-03-14T10:14:30;94171.81;;;15.87;34.21
6345;BME280;3205;42.666;23.264;2023-03-14T10:17:06;94172.00;;;15.21;35.51
6345;BME280;3205;42.666;23.264;2023-03-14T10:19:33;94169.34;;;15.21;35.67
6345;BME280;3205;42.666;23.264;2023-03-14T10:22:02;94153.34;;;14.52;36.21
6345;BME280;3205;42.666;23.264;2023-03-14T10:24:31;94158.84;;;14.37;36.85
6345;BME280;3205;42.666;23.264;2023-03-14T10:26:59;94149.09;;;14.77;37.14
6345;BME280;3205;42.666;23.264;2023-03-14T10:29:28;94150.53;;;14.42;37.28
6345;BME280;3205;42.666;23.264;2023-03-14T10:31:58;94131.31;;;14.52;37.89
6345;BME280;3205;42.666;23.264;2023-03-14T10:34:28;94122.75;;;15.01;36.90
6345;BME280;3205;42.666;23.264;2023-03-14T10:36:57;94115.06;;;14.96;37.22
6345;BME280;3205;42.666;23.264;2023-03-14T10:39:30;94116.94;;;14.56;36.89
6345;BME280;3205;42.666;23.264;2023-03-14T10:42:05;94103.03;;;14.73;36.91
6345;BME280;3205;42.666;23.264;2023-03-14T10:44:34;94101.16;;;14.74;37.00
6345;BME280;3205;42.666;23.264;2023-03-14T10:47:02;94093.31;;;14.87;36.79
6345;BME280;3205;42.666;23.264;2023-03-14T10:49:30;94092.63;;;14.58;37.13
6345;BME280;3205;42.666;23.264;2023-03-14T10:52:01;94085.09;;;14.30;37.86
6345;BME280;3205;42.666;23.264;2023-03-14T10:54:30;94070.97;;;14.26;38.19
6345;BME280;3205;42.666;23.264;2023-03-14T10:56:57;94070.66;;;14.31;38.24
6345;BME280;3205;42.666;23.264;2023-03-14T10:59:24;94069.56;;;14.07;38.99
6345;BME280;3205;42.666;23.264;2023-03-14T11:01:55;94068.69;;;13.96;39.16
6345;BME280;3205;42.666;23.264;2023-03-14T11:04:45;94050.72;;;13.89;39.62
6345;BME280;3205;42.666;23.264;2023-03-14T11:07:26;94044.25;;;14.16;39.76
6345;BME280;3205;42.666;23.264;2023-03-14T11:09:57;94043.94;;;14.54;39.33
6345;BME280;3205;42.666;23.264;2023-03-14T11:12:38;94032.28;;;15.08;39.00
6345;BME280;3205;42.666;23.264;2023-03-14T11:15:13;94025.72;;;15.42;38.37
6345;BME280;3205;42.666;23.264;2023-03-14T11:17:47;94019.88;;;15.23;38.77
6345;BME280;3205;42.666;23.264;2023-03-14T11:20:27;94009.97;;;15.23;38.70
6345;BME280;3205;42.666;23.264;2023-03-14T11:23:01;94001.81;;;15.49;38.68
6345;BME280;3205;42.666;23.264;2023-03-14T11:25:34;94005.31;;;15.63;38.08
6345;BME280;3205;42.666;23.264;2023-03-14T11:28:07;93990.84;;;15.07;38.67
6345;BME280;3205;42.666;23.264;2023-03-14T11:30:39;93996.38;;;15.32;38.88
6345;BME280;3205;42.666;23.264;2023-03-14T11:33:14;93983.28;;;15.16;39.25
6345;BME280;3205;42.666;23.264;2023-03-14T11:35:45;93976.22;;;15.34;39.65
6345;BME280;3205;42.666;23.264;2023-03-14T11:38:24;93976.44;;;15.15;39.35
6345;BME280;3205;42.666;23.264;2023-03-14T11:40:56;93969.75;;;15.35;40.30
6345;BME280;3205;42.666;23.264;2023-03-14T11:43:27;93959.25;;;15.63;39.82
6345;BME280;3205;42.666;23.264;2023-03-14T11:46:01;93963.97;;;15.97;39.40
6345;BME280;3205;42.666;23.264;2023-03-14T11:48:37;93960.13;;;15.91;38.58
6345;BME280;3205;42.666;23.264;2023-03-14T11:51:08;93958.25;;;15.24;38.97
6345;BME280;3205;42.666;23.264;2023-03-14T11:53:45;93952.28;;;14.87;39.58
6345;BME280;3205;42.666;23.264;2023-03-14T11:56:19;93948.09;;;14.86;40.29
6345;BME280;3205;42.666;23.264;2023-03-14T11:58:54;93929.44;;;14.83;40.67
6345;BME280;3205;42.666;23.264;2023-03-14T12:01:23;93927.88;;;14.79;40.74
6345;BME280;3205;42.666;23.264;2023-03-14T12:03:57;93926.28;;;14.71;40.33
6345;BME280;3205;42.666;23.264;2023-03-14T12:06:31;93920.06;;;14.53;41.10
6345;BME280;3205;42.666;23.264;2023-03-14T12:09:02;93910.94;;;14.50;41.10
6345;BME280;3205;42.666;23.264;2023-03-14T12:11:35;93912.22;;;14.70;40.71
6345;BME280;3205;42.666;23.264;2023-03-14T12:14:02;93903.75;;;14.58;40.74
6345;BME280;3205;42.666;23.264;2023-03-14T12:16:34;93890.66;;;14.82;41.04
6345;BME280;3205;42.666;23.264;2023-03-14T12:19:32;93889.97;;;14.95;40.35
6345;BME280;3205;42.666;23.264;2023-03-14T12:22:05;93889.66;;;15.04;40.70
6345;BME280;3205;42.666;23.264;2023-03-14T12:24:35;93879.19;;;15.28;41.17
6345;BME280;3205;42.666;23.264;2023-03-14T12:27:05;93879.66;;;15.55;39.62
6345;BME280;3205;42.666;23.264;2023-03-14T12:29:57;93874.75;;;15.60;39.50
6345;BME280;3205;42.666;23.264;2023-03-14T12:32:24;93869.31;;;15.36;39.84
6345;BME280;3205;42.666;23.264;2023-03-14T12:34:51;93860.19;;;15.40;39.59
6345;BME280;3205;42.666;23.264;2023-03-14T12:37:25;93863.63;;;15.41;39.69
6345;BME280;3205;42.666;23.264;2023-03-14T12:40:03;93856.72;;;15.26;39.65
6345;BME280;3205;42.666;23.264;2023-03-14T12:42:45;93849.00;;;15.14;39.85
6345;BME280;3205;42.666;23.264;2023-03-14T12:45:25;93849.13;;;15.31;39.22
6345;BME280;3205;42.666;23.264;2023-03-14T12:48:08;93839.34;;;15.56;39.18
6345;BME280;3205;42.666;23.264;2023-03-14T12:50:38;93828.34;;;15.75;39.42
6345;BME280;3205;42.666;23.264;2023-03-14T12:53:33;93824.97;;;16.06;39.13
6345;BME280;3205;42.666;23.264;2023-03-14T12:56:15;93824.22;;;16.09;38.27
6345;BME280;3205;42.666;23.264;2023-03-14T12:58:58;93812.78;;;16.05;38.60
6345;BME280;3205;42.666;23.264;2023-03-14T13:01:28;93820.78;;;16.22;38.01
6345;BME280;3205;42.666;23.264;2023-03-14T13:03:55;93811.66;;;16.27;37.93
6345;BME280;3205;42.666;23.264;2023-03-14T13:06:46;93806.72;;;16.42;38.51
6345;BME280;3205;42.666;23.264;2023-03-14T13:09:48;93817.75;;;16.10;38.05
6345;BME280;3205;42.666;23.264;2023-03-14T13:12:16;93802.50;;;16.14;37.51
6345;BME280;3205;42.666;23.264;2023-03-14T13:14:46;93794.91;;;16.12;37.49
6345;BME280;3205;42.666;23.264;2023-03-14T13:17:14;93796.03;;;15.97;37.22